Airfield :
LOGIN :

Register | Disclaimer

   EN    FR    IT 

 










Legend :    VFR   Marginal VFR   IFR   Intensive IFR   Very Intensive IFR
Visi :
Ceiling :
>= 8 km
>= 3000ft
5 to 8 km
1000 to 3000 ft
1500m to 5 km
500 to 1000 ft
800 to 1500m
200 to 500 ft
< 800m
< 200 ft
Symbols :   Thunderstorms  Fog  Heavy snow  Heavy precipitations  Wind > 20 kt
SIGMETs :     Misc.  Thunderstorms  Icing  Turbulence  Mountain Waves  Volcanic Ashes






- Airport Elevation : 645 ft
- IATA code : DLE


LFGJ - Dole Tavaux

CURRENT METAR :
  • 170730Z AUTO 01004KT 320V020 5000 BR NSC 00/M00 Q1007 NOSIG

EXPIRED METARs :
  • 170700Z AUTO 01004KT 7000 NSC 00/M00 Q1007 NOSIG
  • 170630Z AUTO 35007KT 9000 NSC M00/M01 Q1007 NOSIG
  • 170600Z AUTO 33004KT 9000 NSC M01/M01 Q1007
  • 170530Z AUTO 34004KT 8000 NSC M01/M01 Q1008
  • 170500Z AUTO 35003KT 7000 NSC M01/M01 Q1008

TAF AMD TAF LFGJ
Valid from the 17 at 07:00 until the 17 at 15:00 UTC


170743Z 1707/1715 35004KT 7000 NSC
PROB40
TEMPO 1707/1709 4000 BR
PROB40
TEMPO 1707/1711 BKN003
BECMG 1711/1713 VRB04KT BKN006
TEMPO 1714/1715 2500 -RA BR BKN003



MET'MAP, your aeronautical weather chart ! - Copyright ORBIFLY December 2007 - Disclaimer

ORBIFLY MET'MAP TEAM :

Programming & Development : Alexandra Zaïnal
Concept & Development : Baudouin d'Aumeries
Co-Development & Prog : Marc-Olivier Méhu
Technical & hardware support : Manuel Goepfert

Contact : metmap@orbifly.com




SOURCES & CREDITS :

   NOAA